sensor_id;sensor_type;location;lat;lon;timestamp;temperature;humidity
29353;DHT22;16344;50.364;8.944;2022-10-23T00:01:00;15.00;1.00
29353;DHT22;16344;50.364;8.944;2022-10-23T00:03:35;14.90;1.00
29353;DHT22;16344;50.364;8.944;2022-10-23T00:06:03;14.90;1.00
29353;DHT22;16344;50.364;8.944;2022-10-23T00:08:29;14.90;1.00
29353;DHT22;16344;50.364;8.944;2022-10-23T00:10:54;15.00;1.00
29353;DHT22;16344;50.364;8.944;2022-10-23T00:13:20;15.00;1.00
29353;DHT22;16344;50.364;8.944;2022-10-23T00:15:45;15.20;1.00
29353;DHT22;16344;50.364;8.944;2022-10-23T00:18:11;15.10;1.00
29353;DHT22;16344;50.364;8.944;2022-10-23T00:20:36;15.00;1.00
29353;DHT22;16344;50.364;8.944;2022-10-23T00:23:02;14.90;1.00
29353;DHT22;16344;50.364;8.944;2022-10-23T00:25:27;15.10;1.00
29353;DHT22;16344;50.364;8.944;2022-10-23T00:27:53;15.20;1.00
29353;DHT22;16344;50.364;8.944;2022-10-23T00:30:18;15.30;1.00
29353;DHT22;16344;50.364;8.944;2022-10-23T00:32:44;15.40;1.00
29353;DHT22;16344;50.364;8.944;2022-10-23T00:35:10;15.50;1.00
29353;DHT22;16344;50.364;8.944;2022-10-23T00:37:35;15.50;1.00
29353;DHT22;16344;50.364;8.944;2022-10-23T00:40:02;15.60;1.00
29353;DHT22;16344;50.364;8.944;2022-10-23T00:42:28;15.70;1.00
29353;DHT22;16344;50.364;8.944;2022-10-23T00:47:19;15.60;1.00
29353;DHT22;16344;50.364;8.944;2022-10-23T00:49:44;15.60;1.00
29353;DHT22;16344;50.364;8.944;2022-10-23T00:52:11;15.60;1.00
29353;DHT22;16344;50.364;8.944;2022-10-23T00:54:40;15.70;1.00
29353;DHT22;16344;50.364;8.944;2022-10-23T00:57:08;15.70;1.00
29353;DHT22;16344;50.364;8.944;2022-10-23T00:59:36;15.70;1.00
29353;DHT22;16344;50.364;8.944;2022-10-23T01:02:02;15.70;99.90
29353;DHT22;16344;50.364;8.944;2022-10-23T01:04:28;15.70;99.90
29353;DHT22;16344;50.364;8.944;2022-10-23T01:09:38;15.50;99.90
29353;DHT22;16344;50.364;8.944;2022-10-23T01:15:00;15.10;1.00
29353;DHT22;16344;50.364;8.944;2022-10-23T01:23:04;15.10;1.00
29353;DHT22;16344;50.364;8.944;2022-10-23T01:25:58;15.00;1.00
29353;DHT22;16344;50.364;8.944;2022-10-23T01:28:36;15.00;1.00
29353;DHT22;16344;50.364;8.944;2022-10-23T01:31:10;14.90;1.00
29353;DHT22;16344;50.364;8.944;2022-10-23T01:33:43;14.80;1.00
29353;DHT22;16344;50.364;8.944;2022-10-23T01:36:12;14.90;1.00
29353;DHT22;16344;50.364;8.944;2022-10-23T01:38:49;14.90;1.00
29353;DHT22;16344;50.364;8.944;2022-10-23T01:41:38;14.70;1.00
29353;DHT22;16344;50.364;8.944;2022-10-23T01:44:12;14.60;1.00
29353;DHT22;16344;50.364;8.944;2022-10-23T01:46:39;14.50;1.00
29353;DHT22;16344;50.364;8.944;2022-10-23T01:49:08;14.50;1.00
29353;DHT22;16344;50.364;8.944;2022-10-23T01:51:35;14.50;1.00
29353;DHT22;16344;50.364;8.944;2022-10-23T01:54:06;14.70;1.00
29353;DHT22;16344;50.364;8.944;2022-10-23T01:56:34;14.80;1.00
29353;DHT22;16344;50.364;8.944;2022-10-23T01:59:05;14.90;1.00
29353;DHT22;16344;50.364;8.944;2022-10-23T02:01:33;14.90;1.00
29353;DHT22;16344;50.364;8.944;2022-10-23T02:04:02;14.80;1.00
29353;DHT22;16344;50.364;8.944;2022-10-23T02:06:29;14.80;1.00
29353;DHT22;16344;50.364;8.944;2022-10-23T02:08:55;14.60;1.00
29353;DHT22;16344;50.364;8.944;2022-10-23T02:11:21;14.70;1.00
29353;DHT22;16344;50.364;8.944;2022-10-23T02:14:07;14.40;1.00
29353;DHT22;16344;50.364;8.944;2022-10-23T02:16:51;14.40;1.00
29353;DHT22;16344;50.364;8.944;2022-10-23T02:19:49;14.50;1.00
29353;DHT22;16344;50.364;8.944;2022-10-23T02:22:20;14.40;1.00
29353;DHT22;16344;50.364;8.944;2022-10-23T02:27:33;14.70;1.00
29353;DHT22;16344;50.364;8.944;2022-10-23T02:30:07;14.80;1.00
29353;DHT22;16344;50.364;8.944;2022-10-23T02:32:34;14.90;1.00
29353;DHT22;16344;50.364;8.944;2022-10-23T02:35:01;14.90;1.00
29353;DHT22;16344;50.364;8.944;2022-10-23T02:37:26;14.90;1.00
29353;DHT22;16344;50.364;8.944;2022-10-23T02:39:53;14.90;1.00
29353;DHT22;16344;50.364;8.944;2022-10-23T02:42:28;14.90;1.00
29353;DHT22;16344;50.364;8.944;2022-10-23T02:45:08;14.90;1.00
29353;DHT22;16344;50.364;8.944;2022-10-23T02:50:50;15.00;1.00
29353;DHT22;16344;50.364;8.944;2022-10-23T02:56:08;15.00;1.00
29353;DHT22;16344;50.364;8.944;2022-10-23T03:01:25;15.00;1.00
29353;DHT22;16344;50.364;8.944;2022-10-23T03:03:54;15.00;1.00
29353;DHT22;16344;50.364;8.944;2022-10-23T03:06:22;15.10;99.90
29353;DHT22;16344;50.364;8.944;2022-10-23T03:08:52;15.00;99.90
29353;DHT22;16344;50.364;8.944;2022-10-23T03:11:18;15.10;1.00
29353;DHT22;16344;50.364;8.944;2022-10-23T03:13:43;15.00;1.00
29353;DHT22;16344;50.364;8.944;2022-10-23T03:16:09;14.80;99.90
29353;DHT22;16344;50.364;8.944;2022-10-23T03:18:35;14.80;1.00
29353;DHT22;16344;50.364;8.944;2022-10-23T03:21:00;14.80;1.00
29353;DHT22;16344;50.364;8.944;2022-10-23T03:23:26;14.80;1.00
29353;DHT22;16344;50.364;8.944;2022-10-23T03:25:52;14.60;1.00
29353;DHT22;16344;50.364;8.944;2022-10-23T03:28:18;14.60;1.00
29353;DHT22;16344;50.364;8.944;2022-10-23T03:30:44;14.60;1.00
29353;DHT22;16344;50.364;8.944;2022-10-23T03:33:09;14.60;1.00
29353;DHT22;16344;50.364;8.944;2022-10-23T03:35:35;14.60;1.00
29353;DHT22;16344;50.364;8.944;2022-10-23T03:38:00;14.70;1.00
29353;DHT22;16344;50.364;8.944;2022-10-23T03:40:26;14.60;1.00
29353;DHT22;16344;50.364;8.944;2022-10-23T03:42:51;14.70;1.00
29353;DHT22;16344;50.364;8.944;2022-10-23T03:45:17;14.60;1.00
29353;DHT22;16344;50.364;8.944;2022-10-23T03:47:43;14.70;1.00
29353;DHT22;16344;50.364;8.944;2022-10-23T03:50:10;14.70;1.00
29353;DHT22;16344;50.364;8.944;2022-10-23T03:52:36;14.60;1.00
29353;DHT22;16344;50.364;8.944;2022-10-23T03:55:02;14.60;1.00
29353;DHT22;16344;50.364;8.944;2022-10-23T03:57:27;14.60;1.00
29353;DHT22;16344;50.364;8.944;2022-10-23T03:59:53;14.60;1.00
29353;DHT22;16344;50.364;8.944;2022-10-23T04:02:18;14.60;1.00
29353;DHT22;16344;50.364;8.944;2022-10-23T04:04:44;14.60;1.00
29353;DHT22;16344;50.364;8.944;2022-10-23T04:07:10;14.60;1.00
29353;DHT22;16344;50.364;8.944;2022-10-23T04:09:35;14.60;1.00
29353;DHT22;16344;50.364;8.944;2022-10-23T04:12:01;14.70;1.00
29353;DHT22;16344;50.364;8.944;2022-10-23T04:14:26;14.70;1.00
29353;DHT22;16344;50.364;8.944;2022-10-23T04:16:52;14.60;1.00
29353;DHT22;16344;50.364;8.944;2022-10-23T04:19:17;14.70;1.00
29353;DHT22;16344;50.364;8.944;2022-10-23T04:21:43;14.80;1.00
29353;DHT22;16344;50.364;8.944;2022-10-23T04:24:09;14.70;1.00
29353;DHT22;16344;50.364;8.944;2022-10-23T04:26:34;14.70;1.00
29353;DHT22;16344;50.364;8.944;2022-10-23T04:29:00;14.70;1.00
29353;DHT22;16344;50.364;8.944;2022-10-23T04:31:26;14.60;99.90
29353;DHT22;16344;50.364;8.944;2022-10-23T04:33:51;14.40;1.00
29353;DHT22;16344;50.364;8.944;2022-10-23T04:36:17;14.40;1.00
29353;DHT22;16344;50.364;8.944;2022-10-23T04:38:42;14.20;1.00
29353;DHT22;16344;50.364;8.944;2022-10-23T04:41:08;14.30;1.00
29353;DHT22;16344;50.364;8.944;2022-10-23T04:43:33;14.30;1.00
29353;DHT22;16344;50.364;8.944;2022-10-23T04:45:59;14.20;1.00
29353;DHT22;16344;50.364;8.944;2022-10-23T04:48:24;14.20;1.00
29353;DHT22;16344;50.364;8.944;2022-10-23T04:50:55;14.30;1.00
29353;DHT22;16344;50.364;8.944;2022-10-23T04:53:20;14.30;1.00
29353;DHT22;16344;50.364;8.944;2022-10-23T04:55:50;14.30;1.00
29353;DHT22;16344;50.364;8.944;2022-10-23T04:58:16;14.30;1.00
29353;DHT22;16344;50.364;8.944;2022-10-23T05:00:42;14.20;1.00
29353;DHT22;16344;50.364;8.944;2022-10-23T05:03:08;13.70;1.00
29353;DHT22;16344;50.364;8.944;2022-10-23T05:05:33;13.50;1.00
29353;DHT22;16344;50.364;8.944;2022-10-23T05:07:59;13.60;1.00
29353;DHT22;16344;50.364;8.944;2022-10-23T05:10:24;13.30;1.00
29353;DHT22;16344;50.364;8.944;2022-10-23T05:12:50;13.20;1.00
29353;DHT22;16344;50.364;8.944;2022-10-23T05:15:16;13.30;1.00
29353;DHT22;16344;50.364;8.944;2022-10-23T05:17:42;13.30;1.00
29353;DHT22;16344;50.364;8.944;2022-10-23T05:20:15;13.30;1.00
29353;DHT22;16344;50.364;8.944;2022-10-23T05:22:43;13.20;1.00
29353;DHT22;16344;50.364;8.944;2022-10-23T05:25:12;13.00;1.00
29353;DHT22;16344;50.364;8.944;2022-10-23T05:27:37;13.10;1.00
29353;DHT22;16344;50.364;8.944;2022-10-23T05:30:04;13.10;1.00
29353;DHT22;16344;50.364;8.944;2022-10-23T05:32:31;13.10;1.00
29353;DHT22;16344;50.364;8.944;2022-10-23T05:34:57;13.10;1.00
29353;DHT22;16344;50.364;8.944;2022-10-23T05:37:24;13.10;1.00
29353;DHT22;16344;50.364;8.944;2022-10-23T05:39:49;12.90;1.00
29353;DHT22;16344;50.364;8.944;2022-10-23T05:42:15;12.80;1.00
29353;DHT22;16344;50.364;8.944;2022-10-23T05:44:41;12.90;1.00
29353;DHT22;16344;50.364;8.944;2022-10-23T05:47:06;12.90;1.00
29353;DHT22;16344;50.364;8.944;2022-10-23T05:49:32;12.60;1.00
29353;DHT22;16344;50.364;8.944;2022-10-23T05:51:58;12.60;1.00
29353;DHT22;16344;50.364;8.944;2022-10-23T05:54:23;12.60;1.00
29353;DHT22;16344;50.364;8.944;2022-10-23T05:56:49;12.70;1.00
29353;DHT22;16344;50.364;8.944;2022-10-23T05:59:16;12.80;1.00
29353;DHT22;16344;50.364;8.944;2022-10-23T06:01:41;12.80;1.00
29353;DHT22;16344;50.364;8.944;2022-10-23T06:04:07;12.60;1.00
29353;DHT22;16344;50.364;8.944;2022-10-23T06:06:33;12.40;1.00
29353;DHT22;16344;50.364;8.944;2022-10-23T06:08:58;12.30;1.00
29353;DHT22;16344;50.364;8.944;2022-10-23T06:11:24;12.30;1.00
29353;DHT22;16344;50.364;8.944;2022-10-23T06:13:49;12.40;1.00
29353;DHT22;16344;50.364;8.944;2022-10-23T06:16:17;12.50;1.00
29353;DHT22;16344;50.364;8.944;2022-10-23T06:18:44;12.60;1.00
29353;DHT22;16344;50.364;8.944;2022-10-23T06:21:11;12.70;1.00
29353;DHT22;16344;50.364;8.944;2022-10-23T06:23:38;12.80;1.00
29353;DHT22;16344;50.364;8.944;2022-10-23T06:26:05;12.90;1.00
29353;DHT22;16344;50.364;8.944;2022-10-23T06:28:31;13.00;1.00
29353;DHT22;16344;50.364;8.944;2022-10-23T06:30:57;13.20;1.00
29353;DHT22;16344;50.364;8.944;2022-10-23T06:33:22;13.10;1.00
29353;DHT22;16344;50.364;8.944;2022-10-23T06:35:48;13.20;1.00
29353;DHT22;16344;50.364;8.944;2022-10-23T06:38:14;13.50;1.00
29353;DHT22;16344;50.364;8.944;2022-10-23T06:40:39;13.60;1.00
29353;DHT22;16344;50.364;8.944;2022-10-23T06:43:06;13.90;1.00
29353;DHT22;16344;50.364;8.944;2022-10-23T06:45:33;14.00;1.00
29353;DHT22;16344;50.364;8.944;2022-10-23T06:47:59;14.30;1.00
29353;DHT22;16344;50.364;8.944;2022-10-23T06:50:26;14.40;1.00
29353;DHT22;16344;50.364;8.944;2022-10-23T06:52:52;14.50;1.00
29353;DHT22;16344;50.364;8.944;2022-10-23T06:55:18;14.50;1.00
29353;DHT22;16344;50.364;8.944;2022-10-23T06:57:44;14.40;1.00
29353;DHT22;16344;50.364;8.944;2022-10-23T07:00:10;14.30;1.00
29353;DHT22;16344;50.364;8.944;2022-10-23T07:02:36;14.20;1.00
29353;DHT22;16344;50.364;8.944;2022-10-23T07:05:02;14.20;1.00
29353;DHT22;16344;50.364;8.944;2022-10-23T07:07:30;14.20;1.00
29353;DHT22;16344;50.364;8.944;2022-10-23T07:09:56;14.20;1.00
29353;DHT22;16344;50.364;8.944;2022-10-23T07:12:22;14.20;1.00
29353;DHT22;16344;50.364;8.944;2022-10-23T07:14:47;14.20;1.00
29353;DHT22;16344;50.364;8.944;2022-10-23T07:17:13;14.30;1.00
29353;DHT22;16344;50.364;8.944;2022-10-23T07:19:38;14.20;1.00
29353;DHT22;16344;50.364;8.944;2022-10-23T07:22:04;14.30;1.00
29353;DHT22;16344;50.364;8.944;2022-10-23T07:24:30;14.30;1.00
29353;DHT22;16344;50.364;8.944;2022-10-23T07:26:57;14.40;1.00
29353;DHT22;16344;50.364;8.944;2022-10-23T07:29:23;14.60;1.00
29353;DHT22;16344;50.364;8.944;2022-10-23T07:31:48;14.70;1.00
29353;DHT22;16344;50.364;8.944;2022-10-23T07:34:14;15.00;1.00
29353;DHT22;16344;50.364;8.944;2022-10-23T07:36:40;14.90;1.00
29353;DHT22;16344;50.364;8.944;2022-10-23T07:39:05;14.80;1.00
29353;DHT22;16344;50.364;8.944;2022-10-23T07:41:31;14.90;1.00
29353;DHT22;16344;50.364;8.944;2022-10-23T07:43:57;14.40;1.00
29353;DHT22;16344;50.364;8.944;2022-10-23T07:46:22;14.10;1.00
29353;DHT22;16344;50.364;8.944;2022-10-23T07:48:48;14.00;1.00
29353;DHT22;16344;50.364;8.944;2022-10-23T07:51:15;14.10;1.00
29353;DHT22;16344;50.364;8.944;2022-10-23T07:53:41;14.10;1.00
29353;DHT22;16344;50.364;8.944;2022-10-23T07:56:14;14.30;1.00
29353;DHT22;16344;50.364;8.944;2022-10-23T07:58:40;14.40;1.00
29353;DHT22;16344;50.364;8.944;2022-10-23T08:01:16;14.40;1.00
29353;DHT22;16344;50.364;8.944;2022-10-23T08:03:42;14.50;1.00
29353;DHT22;16344;50.364;8.944;2022-10-23T08:06:08;14.40;1.00
29353;DHT22;16344;50.364;8.944;2022-10-23T08:08:33;14.50;1.00
29353;DHT22;16344;50.364;8.944;2022-10-23T08:10:59;14.50;1.00
29353;DHT22;16344;50.364;8.944;2022-10-23T08:13:25;14.40;1.00
29353;DHT22;16344;50.364;8.944;2022-10-23T08:15:50;14.50;1.00
29353;DHT22;16344;50.364;8.944;2022-10-23T08:18:17;14.50;1.00
29353;DHT22;16344;50.364;8.944;2022-10-23T08:20:45;14.50;1.00
29353;DHT22;16344;50.364;8.944;2022-10-23T08:23:11;14.70;1.00
29353;DHT22;16344;50.364;8.944;2022-10-23T08:25:38;14.60;1.00
29353;DHT22;16344;50.364;8.944;2022-10-23T08:28:05;14.80;1.00
29353;DHT22;16344;50.364;8.944;2022-10-23T08:30:31;14.90;1.00
29353;DHT22;16344;50.364;8.944;2022-10-23T08:32:57;15.00;1.00
29353;DHT22;16344;50.364;8.944;2022-10-23T08:35:22;15.00;1.00
29353;DHT22;16344;50.364;8.944;2022-10-23T08:37:48;15.10;1.00
29353;DHT22;16344;50.364;8.944;2022-10-23T08:40:18;15.10;1.00
29353;DHT22;16344;50.364;8.944;2022-10-23T08:42:54;15.10;1.00
29353;DHT22;16344;50.364;8.944;2022-10-23T08:45:46;15.30;1.00
29353;DHT22;16344;50.364;8.944;2022-10-23T08:48:41;15.20;1.00
29353;DHT22;16344;50.364;8.944;2022-10-23T08:51:15;15.30;1.00
29353;DHT22;16344;50.364;8.944;2022-10-23T08:56:38;15.40;1.00
29353;DHT22;16344;50.364;8.944;2022-10-23T08:59:35;15.50;1.00
29353;DHT22;16344;50.364;8.944;2022-10-23T09:04:32;15.50;1.00
29353;DHT22;16344;50.364;8.944;2022-10-23T09:09:59;15.40;1.00
29353;DHT22;16344;50.364;8.944;2022-10-23T09:12:28;15.40;1.00
29353;DHT22;16344;50.364;8.944;2022-10-23T09:17:51;15.40;1.00
29353;DHT22;16344;50.364;8.944;2022-10-23T09:20:34;15.30;1.00
29353;DHT22;16344;50.364;8.944;2022-10-23T09:23:17;15.50;1.00
29353;DHT22;16344;50.364;8.944;2022-10-23T09:25:45;15.40;1.00
29353;DHT22;16344;50.364;8.944;2022-10-23T09:28:31;15.40;1.00
29353;DHT22;16344;50.364;8.944;2022-10-23T09:31:10;15.30;1.00
29353;DHT22;16344;50.364;8.944;2022-10-23T09:33:36;15.50;1.00
29353;DHT22;16344;50.364;8.944;2022-10-23T09:36:05;15.40;1.00
29353;DHT22;16344;50.364;8.944;2022-10-23T09:38:47;15.40;1.00
29353;DHT22;16344;50.364;8.944;2022-10-23T09:41:39;15.40;1.00
29353;DHT22;16344;50.364;8.944;2022-10-23T09:46:41;15.50;1.00
29353;DHT22;16344;50.364;8.944;2022-10-23T09:49:21;15.40;1.00
29353;DHT22;16344;50.364;8.944;2022-10-23T09:51:55;15.30;1.00
29353;DHT22;16344;50.364;8.944;2022-10-23T09:54:23;15.40;1.00
29353;DHT22;16344;50.364;8.944;2022-10-23T09:56:49;15.40;1.00
29353;DHT22;16344;50.364;8.944;2022-10-23T09:59:29;15.50;1.00
29353;DHT22;16344;50.364;8.944;2022-10-23T10:02:00;15.40;1.00
29353;DHT22;16344;50.364;8.944;2022-10-23T10:04:37;15.50;1.00
29353;DHT22;16344;50.364;8.944;2022-10-23T10:07:05;15.50;1.00
29353;DHT22;16344;50.364;8.944;2022-10-23T10:09:31;15.60;1.00
29353;DHT22;16344;50.364;8.944;2022-10-23T10:12:27;15.60;1.00
29353;DHT22;16344;50.364;8.944;2022-10-23T10:15:04;15.70;1.00
29353;DHT22;16344;50.364;8.944;2022-10-23T10:17:51;15.70;1.00
29353;DHT22;16344;50.364;8.944;2022-10-23T10:20:33;15.80;1.00
29353;DHT22;16344;50.364;8.944;2022-10-23T10:33:47;16.00;1.00
29353;DHT22;16344;50.364;8.944;2022-10-23T10:38:50;16.20;1.00
29353;DHT22;16344;50.364;8.944;2022-10-23T10:44:38;16.10;99.90
29353;DHT22;16344;50.364;8.944;2022-10-23T10:52:42;16.10;1.00
29353;DHT22;16344;50.364;8.944;2022-10-23T10:55:23;16.00;1.00
29353;DHT22;16344;50.364;8.944;2022-10-23T10:57:56;16.10;1.00
29353;DHT22;16344;50.364;8.944;2022-10-23T11:00:23;16.20;99.90
29353;DHT22;16344;50.364;8.944;2022-10-23T11:03:03;16.10;99.90
29353;DHT22;16344;50.364;8.944;2022-10-23T11:05:40;16.10;99.90
29353;DHT22;16344;50.364;8.944;2022-10-23T11:10:57;16.30;1.00
29353;DHT22;16344;50.364;8.944;2022-10-23T11:13:51;16.40;99.90
29353;DHT22;16344;50.364;8.944;2022-10-23T11:16:24;16.40;99.90
29353;DHT22;16344;50.364;8.944;2022-10-23T11:22:05;16.40;99.90
29353;DHT22;16344;50.364;8.944;2022-10-23T11:36:15;16.40;1.00
29353;DHT22;16344;50.364;8.944;2022-10-23T11:38:43;16.30;1.00
29353;DHT22;16344;50.364;8.944;2022-10-23T11:41:24;16.30;1.00
29353;DHT22;16344;50.364;8.944;2022-10-23T11:43:53;16.30;1.00
29353;DHT22;16344;50.364;8.944;2022-10-23T11:48:52;16.30;1.00
29353;DHT22;16344;50.364;8.944;2022-10-23T11:51:36;16.30;1.00
29353;DHT22;16344;50.364;8.944;2022-10-23T11:56:50;16.30;99.90
29353;DHT22;16344;50.364;8.944;2022-10-23T12:01:51;16.40;1.00
29353;DHT22;16344;50.364;8.944;2022-10-23T12:04:24;16.40;99.90
29353;DHT22;16344;50.364;8.944;2022-10-23T12:07:02;16.40;1.00
29353;DHT22;16344;50.364;8.944;2022-10-23T12:16:55;16.20;99.90
29353;DHT22;16344;50.364;8.944;2022-10-23T12:19:23;16.30;1.00
29353;DHT22;16344;50.364;8.944;2022-10-23T12:21:54;16.30;1.00
29353;DHT22;16344;50.364;8.944;2022-10-23T12:27:03;16.50;99.90
29353;DHT22;16344;50.364;8.944;2022-10-23T12:30:00;16.50;99.90
29353;DHT22;16344;50.364;8.944;2022-10-23T12:40:36;16.60;99.90
29353;DHT22;16344;50.364;8.944;2022-10-23T12:43:01;16.60;99.90
29353;DHT22;16344;50.364;8.944;2022-10-23T12:45:35;16.70;99.90
29353;DHT22;16344;50.364;8.944;2022-10-23T12:48:01;16.70;99.90
29353;DHT22;16344;50.364;8.944;2022-10-23T12:50:29;16.90;99.90
29353;DHT22;16344;50.364;8.944;2022-10-23T12:53:03;17.10;99.90
29353;DHT22;16344;50.364;8.944;2022-10-23T12:55:43;17.30;99.90
29353;DHT22;16344;50.364;8.944;2022-10-23T12:58:22;17.40;99.90
29353;DHT22;16344;50.364;8.944;2022-10-23T13:00:56;17.60;99.90
29353;DHT22;16344;50.364;8.944;2022-10-23T13:03:23;17.70;99.90
29353;DHT22;16344;50.364;8.944;2022-10-23T13:05:51;17.70;99.90
29353;DHT22;16344;50.364;8.944;2022-10-23T13:08:19;17.60;99.90
29353;DHT22;16344;50.364;8.944;2022-10-23T13:10:46;17.50;99.90
29353;DHT22;16344;50.364;8.944;2022-10-23T13:13:21;17.70;99.90
29353;DHT22;16344;50.364;8.944;2022-10-23T13:15:48;18.00;99.90
29353;DHT22;16344;50.364;8.944;2022-10-23T13:18:15;18.10;99.90
29353;DHT22;16344;50.364;8.944;2022-10-23T13:20:43;18.10;99.90
29353;DHT22;16344;50.364;8.944;2022-10-23T13:23:29;18.30;99.90
29353;DHT22;16344;50.364;8.944;2022-10-23T13:25:57;18.10;99.90
29353;DHT22;16344;50.364;8.944;2022-10-23T13:28:29;18.20;99.90
29353;DHT22;16344;50.364;8.944;2022-10-23T13:31:04;18.30;99.90
29353;DHT22;16344;50.364;8.944;2022-10-23T13:38:44;17.90;99.90
29353;DHT22;16344;50.364;8.944;2022-10-23T13:41:16;17.80;99.90
29353;DHT22;16344;50.364;8.944;2022-10-23T13:43:43;17.80;99.90
29353;DHT22;16344;50.364;8.944;2022-10-23T13:46:23;17.70;99.90
29353;DHT22;16344;50.364;8.944;2022-10-23T13:48:50;17.70;99.90
29353;DHT22;16344;50.364;8.944;2022-10-23T13:51:27;17.80;99.90
29353;DHT22;16344;50.364;8.944;2022-10-23T13:53:53;17.60;99.90
29353;DHT22;16344;50.364;8.944;2022-10-23T13:56:21;17.60;99.90
29353;DHT22;16344;50.364;8.944;2022-10-23T13:58:47;17.70;99.90
29353;DHT22;16344;50.364;8.944;2022-10-23T14:01:24;17.60;99.90
29353;DHT22;16344;50.364;8.944;2022-10-23T14:03:51;17.50;99.90
29353;DHT22;16344;50.364;8.944;2022-10-23T14:06:17;17.60;99.90
29353;DHT22;16344;50.364;8.944;2022-10-23T14:08:43;17.70;99.90
29353;DHT22;16344;50.364;8.944;2022-10-23T14:11:10;17.60;99.90
29353;DHT22;16344;50.364;8.944;2022-10-23T14:13:36;17.70;99.90
29353;DHT22;16344;50.364;8.944;2022-10-23T14:16:01;17.70;99.90
29353;DHT22;16344;50.364;8.944;2022-10-23T14:18:27;17.60;99.90
29353;DHT22;16344;50.364;8.944;2022-10-23T14:20:52;17.70;99.90
29353;DHT22;16344;50.364;8.944;2022-10-23T14:23:18;17.60;99.90
29353;DHT22;16344;50.364;8.944;2022-10-23T14:25:43;17.60;99.90
29353;DHT22;16344;50.364;8.944;2022-10-23T14:28:09;17.70;99.90
29353;DHT22;16344;50.364;8.944;2022-10-23T14:30:36;17.70;99.90
29353;DHT22;16344;50.364;8.944;2022-10-23T14:33:02;17.70;99.90
29353;DHT22;16344;50.364;8.944;2022-10-23T14:35:27;17.70;99.90
29353;DHT22;16344;50.364;8.944;2022-10-23T14:37:53;17.60;99.90
29353;DHT22;16344;50.364;8.944;2022-10-23T14:40:18;17.50;99.90
29353;DHT22;16344;50.364;8.944;2022-10-23T14:42:44;17.70;99.90
29353;DHT22;16344;50.364;8.944;2022-10-23T14:45:09;17.50;99.90
29353;DHT22;16344;50.364;8.944;2022-10-23T14:47:35;17.80;99.90
29353;DHT22;16344;50.364;8.944;2022-10-23T14:50:00;17.70;99.90
29353;DHT22;16344;50.364;8.944;2022-10-23T14:52:26;17.60;99.90
29353;DHT22;16344;50.364;8.944;2022-10-23T14:54:52;17.60;99.90
29353;DHT22;16344;50.364;8.944;2022-10-23T14:57:18;17.80;99.90
29353;DHT22;16344;50.364;8.944;2022-10-23T14:59:46;17.60;99.90
29353;DHT22;16344;50.364;8.944;2022-10-23T15:02:12;17.60;99.90
29353;DHT22;16344;50.364;8.944;2022-10-23T15:04:38;17.60;99.90
29353;DHT22;16344;50.364;8.944;2022-10-23T15:07:04;17.60;99.90
29353;DHT22;16344;50.364;8.944;2022-10-23T15:09:30;17.50;99.90
29353;DHT22;16344;50.364;8.944;2022-10-23T15:11:59;17.50;99.90
29353;DHT22;16344;50.364;8.944;2022-10-23T15:14:25;17.50;99.90
29353;DHT22;16344;50.364;8.944;2022-10-23T15:16:50;17.50;99.90
29353;DHT22;16344;50.364;8.944;2022-10-23T15:19:16;17.50;99.90
29353;DHT22;16344;50.364;8.944;2022-10-23T15:21:41;17.50;99.90
29353;DHT22;16344;50.364;8.944;2022-10-23T15:24:07;17.40;99.90
29353;DHT22;16344;50.364;8.944;2022-10-23T15:26:33;17.40;99.90
29353;DHT22;16344;50.364;8.944;2022-10-23T15:29:00;17.40;99.90
29353;DHT22;16344;50.364;8.944;2022-10-23T15:33:55;17.20;99.90
29353;DHT22;16344;50.364;8.944;2022-10-23T15:36:21;17.20;99.90
29353;DHT22;16344;50.364;8.944;2022-10-23T15:38:48;17.20;99.90
29353;DHT22;16344;50.364;8.944;2022-10-23T15:41:16;17.30;99.90
29353;DHT22;16344;50.364;8.944;2022-10-23T15:43:41;17.40;99.90
29353;DHT22;16344;50.364;8.944;2022-10-23T15:46:07;17.60;99.90
29353;DHT22;16344;50.364;8.944;2022-10-23T15:48:33;17.80;99.90
29353;DHT22;16344;50.364;8.944;2022-10-23T15:50:58;17.80;99.90
29353;DHT22;16344;50.364;8.944;2022-10-23T15:53:24;17.80;99.90
29353;DHT22;16344;50.364;8.944;2022-10-23T15:55:50;17.90;99.90
29353;DHT22;16344;50.364;8.944;2022-10-23T15:58:15;18.00;99.90
29353;DHT22;16344;50.364;8.944;2022-10-23T16:00:41;17.90;99.90
29353;DHT22;16344;50.364;8.944;2022-10-23T16:03:07;17.80;99.90
29353;DHT22;16344;50.364;8.944;2022-10-23T16:05:32;17.70;99.90
29353;DHT22;16344;50.364;8.944;2022-10-23T16:07:58;17.70;99.90
29353;DHT22;16344;50.364;8.944;2022-10-23T16:10:23;17.60;99.90
29353;DHT22;16344;50.364;8.944;2022-10-23T16:12:49;17.60;99.90
29353;DHT22;16344;50.364;8.944;2022-10-23T16:15:15;17.40;99.90
29353;DHT22;16344;50.364;8.944;2022-10-23T16:17:40;17.30;99.90
29353;DHT22;16344;50.364;8.944;2022-10-23T16:20:06;17.10;99.90
29353;DHT22;16344;50.364;8.944;2022-10-23T16:22:32;17.00;99.90
29353;DHT22;16344;50.364;8.944;2022-10-23T16:24:58;16.90;99.90
29353;DHT22;16344;50.364;8.944;2022-10-23T16:27:23;17.10;99.90
29353;DHT22;16344;50.364;8.944;2022-10-23T16:29:49;17.00;99.90
29353;DHT22;16344;50.364;8.944;2022-10-23T16:32:14;17.10;99.90
29353;DHT22;16344;50.364;8.944;2022-10-23T16:34:40;17.10;99.90
29353;DHT22;16344;50.364;8.944;2022-10-23T16:37:06;17.10;99.90
29353;DHT22;16344;50.364;8.944;2022-10-23T16:39:31;17.30;99.90
29353;DHT22;16344;50.364;8.944;2022-10-23T16:41:57;17.30;99.90
29353;DHT22;16344;50.364;8.944;2022-10-23T16:44:22;17.40;99.90
29353;DHT22;16344;50.364;8.944;2022-10-23T16:46:48;17.20;99.90
29353;DHT22;16344;50.364;8.944;2022-10-23T16:49:13;17.30;99.90
29353;DHT22;16344;50.364;8.944;2022-10-23T16:51:39;17.40;99.90
29353;DHT22;16344;50.364;8.944;2022-10-23T16:54:05;17.40;99.90
29353;DHT22;16344;50.364;8.944;2022-10-23T16:56:31;17.60;99.90
29353;DHT22;16344;50.364;8.944;2022-10-23T16:58:58;17.50;99.90
29353;DHT22;16344;50.364;8.944;2022-10-23T17:01:27;17.60;99.90
29353;DHT22;16344;50.364;8.944;2022-10-23T17:03:53;17.80;99.90
29353;DHT22;16344;50.364;8.944;2022-10-23T17:06:22;18.00;99.90
29353;DHT22;16344;50.364;8.944;2022-10-23T17:08:49;18.10;99.90
29353;DHT22;16344;50.364;8.944;2022-10-23T17:11:20;18.10;99.90
29353;DHT22;16344;50.364;8.944;2022-10-23T17:13:49;18.20;99.90
29353;DHT22;16344;50.364;8.944;2022-10-23T17:16:18;18.20;99.90
29353;DHT22;16344;50.364;8.944;2022-10-23T17:18:45;18.30;99.90
29353;DHT22;16344;50.364;8.944;2022-10-23T17:21:12;18.20;99.90
29353;DHT22;16344;50.364;8.944;2022-10-23T17:23:38;18.20;99.90
29353;DHT22;16344;50.364;8.944;2022-10-23T17:26:06;18.20;99.90
29353;DHT22;16344;50.364;8.944;2022-10-23T17:28:32;18.30;99.90
29353;DHT22;16344;50.364;8.944;2022-10-23T17:31:02;18.30;99.90
29353;DHT22;16344;50.364;8.944;2022-10-23T17:33:27;18.30;99.90
29353;DHT22;16344;50.364;8.944;2022-10-23T17:35:53;18.20;99.90
29353;DHT22;16344;50.364;8.944;2022-10-23T17:38:18;18.10;99.90
29353;DHT22;16344;50.364;8.944;2022-10-23T17:40:45;17.90;99.90